Terminal Aerodrome Forecast
Issued by NWS

Home | Current Version | Previous Version | Text Only | Print | Product List | Glossary On
Versions: 1 2 3 4 5 6 7 8 9 10 11 12 13
000
FTUS42 KMLB 250500
TAFSFB
TAF
KSFB 250536Z 2506/2606 VRB03KT P6SM FEW050 SCT250
      TEMPO 2510/2513 5SM BR SCT005
     FM251500 25007KT P6SM FEW040=

USA.gov is the U.S. government's official web portal to all federal, state and local government web resources and services.